Edda Fauna — JWMZ3 — position and weather

sailwx.info

Track history (hours):
 
Tides and Currents Weather Stations Pressure Air Temp Water Temp Dewpoint Dewpoint Depression Visibility Wind Speed Wind Dir Waves Ship Positions

Edda Fauna

Last reported at 2018-Jul-17 16:00 UTC. Time now 2018-Jul-18 18:37 UTC.
Position N 59°07' E 004°51'.

Length 108 m; draft 6.6 m.

Type: Dredging. MMSI: 259665000.

Date/timePositionNaut miles runAvg speedWind from/ knotsBaromVisibWave heightAir tempDewpointWater temp
2018-Jul-17 16:00N 59°07' E 004°51'713.9
2018-Jul-17 15:30N 59°13' E 004°58'714.3
2018-Jul-17 15:00N 59°19' E 005°04'714.3
2018-Jul-17 14:30N 59°26' E 005°10'2 5.0
2018-Jul-17 14:00N 59°25' E 005°15'0 0.1
2018-Jul-17 13:30N 59°25' E 005°15'0 0.0
2018-Jul-17 13:00N 59°25' E 005°15'0 0.0
2018-Jul-17 12:29N 59°25' E 005°15'0 0.0
2018-Jul-17 11:59N 59°25' E 005°15'0 0.0
2018-Jul-17 11:29N 59°25' E 005°15'0 0.0
2018-Jul-17 10:59N 59°25' E 005°15'0 0.0
2018-Jul-17 10:28N 59°25' E 005°15'0 0.0
2018-Jul-17 09:58N 59°25' E 005°15'0 0.0
2018-Jul-17 09:28N 59°25' E 005°15'0 0.0
2018-Jul-17 08:58N 59°25' E 005°15'0 0.0
2018-Jul-17 08:28N 59°25' E 005°15'0 0.0
2018-Jul-17 08:00N 59°25' E 005°15'0 0.0
2018-Jul-17 07:30N 59°25' E 005°15'0 0.0
2018-Jul-17 07:00N 59°25' E 005°15'0 0.0
2018-Jul-17 06:30N 59°25' E 005°15'0 0.0
2018-Jul-17 06:00N 59°25' E 005°15'0 0.0
2018-Jul-17 05:29N 59°25' E 005°15'0 0.0
2018-Jul-17 04:59N 59°25' E 005°15'1 1.1
2018-Jul-17 04:30N 59°25' E 005°14'713.8
2018-Jul-17 03:59N 59°19' E 005°20'714.0
2018-Jul-17 03:30N 59°12' E 005°21'0 0.5
2018-Jul-17 03:00N 59°12' E 005°21'0 0.1
2018-Jul-17 02:30N 59°12' E 005°21'0 0.1
2018-Jul-17 02:00N 59°12' E 005°21'0 0.0
2018-Jul-17 01:30N 59°12' E 005°21'0 0.0
2018-Jul-17 01:00N 59°12' E 005°21'0 0.2
2018-Jul-17 00:30N 59°12' E 005°21'0 0.4
2018-Jul-16 23:30N 59°12' E 005°21'0 0.4
2018-Jul-16 22:59N 59°11' E 005°21'0 0.2
2018-Jul-16 22:30N 59°11' E 005°21'0 0.9
2018-Jul-16 22:00N 59°11' E 005°21'0 0.2
2018-Jul-16 21:30N 59°11' E 005°21'0 0.9
2018-Jul-16 21:00N 59°10' E 005°21'0 0.6
2018-Jul-16 20:29N 59°10' E 005°21'0 0.0
2018-Jul-16 20:00N 59°10' E 005°21'0 0.0
2018-Jul-16 19:30N 59°10' E 005°21'0 0.0
2018-Jul-16 19:00N 59°10' E 005°21'0 0.1
2018-Jul-16 18:30N 59°10' E 005°21'0 0.1
2018-Jul-16 18:00N 59°10' E 005°21'0 0.1
2018-Jul-16 17:30N 59°10' E 005°21'0 0.0
2018-Jul-16 17:00N 59°10' E 005°21'0 0.1
2018-Jul-16 16:29N 59°10' E 005°21'0 0.0
2018-Jul-16 15:59N 59°10' E 005°21'0 0.1
2018-Jul-16 15:30N 59°10' E 005°21'0 0.0
2018-Jul-16 15:00N 59°10' E 005°21'0 0.0
2018-Jul-16 14:30N 59°10' E 005°21'0 0.0
2018-Jul-16 14:00N 59°10' E 005°21'0 0.0
2018-Jul-16 13:30N 59°10' E 005°21'0 0.4
2018-Jul-16 13:00N 59°10' E 005°21'611.0
2018-Jul-16 12:30N 59°15' E 005°20'713.5
2018-Jul-16 12:00N 59°22' E 005°18'4 7.1
2018-Jul-16 11:30N 59°25' E 005°15'0 0.1
2018-Jul-16 10:59N 59°25' E 005°15'0 0.0
2018-Jul-16 10:29N 59°25' E 005°15'0 0.0
2018-Jul-16 09:59N 59°25' E 005°15'0 0.0
2018-Jul-16 09:29N 59°25' E 005°15'0 0.0
2018-Jul-16 08:58N 59°25' E 005°15'0 0.0
2018-Jul-16 08:28N 59°25' E 005°15'0 0.0
2018-Jul-16 07:58N 59°25' E 005°15'0 0.0
2018-Jul-16 07:28N 59°25' E 005°15'0 0.0
2018-Jul-16 07:00N 59°25' E 005°15'0 0.0
2018-Jul-16 06:30N 59°25' E 005°15'0 0.0
2018-Jul-16 06:00N 59°25' E 005°15'0 0.0
2018-Jul-16 05:30N 59°25' E 005°15'0 0.0
2018-Jul-16 05:00N 59°25' E 005°15'0 0.0
2018-Jul-16 04:29N 59°25' E 005°15'0 0.0
2018-Jul-16 03:56N 59°25' E 005°15'0 0.0
2018-Jul-16 03:29N 59°25' E 005°15'0 0.0
2018-Jul-16 02:59N 59°25' E 005°15'0 0.0
2018-Jul-16 02:29N 59°25' E 005°15'0 0.0
2018-Jul-16 01:58N 59°25' E 005°15'0 0.0
2018-Jul-16 01:28N 59°25' E 005°15'0 0.0
2018-Jul-16 00:58N 59°25' E 005°15'0 0.0
2018-Jul-16 00:28N 59°25' E 005°15'0 0.0
2018-Jul-15 23:57N 59°25' E 005°15'0 0.0
2018-Jul-15 23:30N 59°25' E 005°15'0 0.0
2018-Jul-15 23:00N 59°25' E 005°15'0 0.0
2018-Jul-15 22:30N 59°25' E 005°15'0 0.0
2018-Jul-15 22:00N 59°25' E 005°15'0 0.0
2018-Jul-15 21:29N 59°25' E 005°15'0 0.0
2018-Jul-15 20:59N 59°25' E 005°15'0 0.0
2018-Jul-15 20:29N 59°25' E 005°15'0 0.0
2018-Jul-15 19:59N 59°25' E 005°15'0 0.0
2018-Jul-15 19:29N 59°25' E 005°15'0 0.0
2018-Jul-15 18:55N 59°25' E 005°15'0 0.0
2018-Jul-15 18:28N 59°25' E 005°15'0 0.0
2018-Jul-15 17:58N 59°25' E 005°15'0 0.0
2018-Jul-15 17:28N 59°25' E 005°15'0 0.0
2018-Jul-15 17:00N 59°25' E 005°15'0 0.0
2018-Jul-15 16:30N 59°25' E 005°15'0 0.0
2018-Jul-15 16:00N 59°25' E 005°15'0 0.2
2018-Jul-15 15:30N 59°25' E 005°15'4 7.4
2018-Jul-15 15:00N 59°22' E 005°18'713.7
2018-Jul-15 14:30N 59°15' E 005°21'713.9
2018-Jul-15 14:00N 59°08' E 005°21'713.9
2018-Jul-15 13:30N 59°01' E 005°20'713.5
2018-Jul-15 13:00N 58°55' E 005°17'613.0
2018-Jul-15 12:31N 58°49' E 005°12'713.2
2018-Jul-15 12:00N 58°43' E 005°06'713.3
2018-Jul-15 11:30N 58°37' E 005°01'1713.3
2018-Jul-15 10:12N 58°21' E 004°49'313.8
2018-Jul-15 10:00N 58°18' E 004°47'  
2018-Jul-12 03:12N 56°17' E 003°24'0 0.0
2018-Jul-12 02:55N 56°17' E 003°24'0 0.0
2018-Jul-12 02:24N 56°17' E 003°24'  
Track history (hours):
 
Tides and Currents Weather Stations Pressure Air Temp Water Temp Dewpoint Dewpoint Depression Visibility Wind Speed Wind Dir Waves Ship Positions

Edda Fauna

Last reported at 2018-Jul-17 16:00 UTC. Time now 2018-Jul-18 18:37 UTC.
Position N 59°07' E 004°51'.

Length 108 m; draft 6.6 m.

Type: Dredging. MMSI: 259665000.

Date/timePositionNaut miles runAvg speedWind from/ knotsBaromVisibWave heightAir tempDewpointWater temp
2018-Jul-17 16:00N 59°07' E 004°51'713.9
2018-Jul-17 15:30N 59°13' E 004°58'714.3
2018-Jul-17 15:00N 59°19' E 005°04'714.3
2018-Jul-17 14:30N 59°26' E 005°10'2 5.0
2018-Jul-17 14:00N 59°25' E 005°15'0 0.1
2018-Jul-17 13:30N 59°25' E 005°15'0 0.0
2018-Jul-17 13:00N 59°25' E 005°15'0 0.0
2018-Jul-17 12:29N 59°25' E 005°15'0 0.0
2018-Jul-17 11:59N 59°25' E 005°15'0 0.0
2018-Jul-17 11:29N 59°25' E 005°15'0 0.0
2018-Jul-17 10:59N 59°25' E 005°15'0 0.0
2018-Jul-17 10:28N 59°25' E 005°15'0 0.0
2018-Jul-17 09:58N 59°25' E 005°15'0 0.0
2018-Jul-17 09:28N 59°25' E 005°15'0 0.0
2018-Jul-17 08:58N 59°25' E 005°15'0 0.0
2018-Jul-17 08:28N 59°25' E 005°15'0 0.0
2018-Jul-17 08:00N 59°25' E 005°15'0 0.0
2018-Jul-17 07:30N 59°25' E 005°15'0 0.0
2018-Jul-17 07:00N 59°25' E 005°15'0 0.0
2018-Jul-17 06:30N 59°25' E 005°15'0 0.0
2018-Jul-17 06:00N 59°25' E 005°15'0 0.0
2018-Jul-17 05:29N 59°25' E 005°15'0 0.0
2018-Jul-17 04:59N 59°25' E 005°15'1 1.1
2018-Jul-17 04:30N 59°25' E 005°14'713.8
2018-Jul-17 03:59N 59°19' E 005°20'714.0
2018-Jul-17 03:30N 59°12' E 005°21'0 0.5
2018-Jul-17 03:00N 59°12' E 005°21'0 0.1
2018-Jul-17 02:30N 59°12' E 005°21'0 0.1
2018-Jul-17 02:00N 59°12' E 005°21'0 0.0
2018-Jul-17 01:30N 59°12' E 005°21'0 0.0
2018-Jul-17 01:00N 59°12' E 005°21'0 0.2
2018-Jul-17 00:30N 59°12' E 005°21'0 0.4
2018-Jul-16 23:30N 59°12' E 005°21'0 0.4
2018-Jul-16 22:59N 59°11' E 005°21'0 0.2
2018-Jul-16 22:30N 59°11' E 005°21'0 0.9
2018-Jul-16 22:00N 59°11' E 005°21'0 0.2
2018-Jul-16 21:30N 59°11' E 005°21'0 0.9
2018-Jul-16 21:00N 59°10' E 005°21'0 0.6
2018-Jul-16 20:29N 59°10' E 005°21'0 0.0
2018-Jul-16 20:00N 59°10' E 005°21'0 0.0
2018-Jul-16 19:30N 59°10' E 005°21'0 0.0
2018-Jul-16 19:00N 59°10' E 005°21'0 0.1
2018-Jul-16 18:30N 59°10' E 005°21'0 0.1
2018-Jul-16 18:00N 59°10' E 005°21'0 0.1
2018-Jul-16 17:30N 59°10' E 005°21'0 0.0
2018-Jul-16 17:00N 59°10' E 005°21'0 0.1
2018-Jul-16 16:29N 59°10' E 005°21'0 0.0
2018-Jul-16 15:59N 59°10' E 005°21'0 0.1
2018-Jul-16 15:30N 59°10' E 005°21'0 0.0
2018-Jul-16 15:00N 59°10' E 005°21'0 0.0
2018-Jul-16 14:30N 59°10' E 005°21'0 0.0
2018-Jul-16 14:00N 59°10' E 005°21'0 0.0
2018-Jul-16 13:30N 59°10' E 005°21'0 0.4
2018-Jul-16 13:00N 59°10' E 005°21'611.0
2018-Jul-16 12:30N 59°15' E 005°20'713.5
2018-Jul-16 12:00N 59°22' E 005°18'4 7.1
2018-Jul-16 11:30N 59°25' E 005°15'0 0.1
2018-Jul-16 10:59N 59°25' E 005°15'0 0.0
2018-Jul-16 10:29N 59°25' E 005°15'0 0.0
2018-Jul-16 09:59N 59°25' E 005°15'0 0.0
2018-Jul-16 09:29N 59°25' E 005°15'0 0.0
2018-Jul-16 08:58N 59°25' E 005°15'0 0.0
2018-Jul-16 08:28N 59°25' E 005°15'0 0.0
2018-Jul-16 07:58N 59°25' E 005°15'0 0.0
2018-Jul-16 07:28N 59°25' E 005°15'0 0.0
2018-Jul-16 07:00N 59°25' E 005°15'0 0.0
2018-Jul-16 06:30N 59°25' E 005°15'0 0.0
2018-Jul-16 06:00N 59°25' E 005°15'0 0.0
2018-Jul-16 05:30N 59°25' E 005°15'0 0.0
2018-Jul-16 05:00N 59°25' E 005°15'0 0.0
2018-Jul-16 04:29N 59°25' E 005°15'0 0.0
2018-Jul-16 03:56N 59°25' E 005°15'0 0.0
2018-Jul-16 03:29N 59°25' E 005°15'0 0.0
2018-Jul-16 02:59N 59°25' E 005°15'0 0.0
2018-Jul-16 02:29N 59°25' E 005°15'0 0.0
2018-Jul-16 01:58N 59°25' E 005°15'0 0.0
2018-Jul-16 01:28N 59°25' E 005°15'0 0.0
2018-Jul-16 00:58N 59°25' E 005°15'0 0.0
2018-Jul-16 00:28N 59°25' E 005°15'0 0.0
2018-Jul-15 23:57N 59°25' E 005°15'0 0.0
2018-Jul-15 23:30N 59°25' E 005°15'0 0.0
2018-Jul-15 23:00N 59°25' E 005°15'0 0.0
2018-Jul-15 22:30N 59°25' E 005°15'0 0.0
2018-Jul-15 22:00N 59°25' E 005°15'0 0.0
2018-Jul-15 21:29N 59°25' E 005°15'0 0.0
2018-Jul-15 20:59N 59°25' E 005°15'0 0.0
2018-Jul-15 20:29N 59°25' E 005°15'0 0.0
2018-Jul-15 19:59N 59°25' E 005°15'0 0.0
2018-Jul-15 19:29N 59°25' E 005°15'0 0.0
2018-Jul-15 18:55N 59°25' E 005°15'0 0.0
2018-Jul-15 18:28N 59°25' E 005°15'0 0.0
2018-Jul-15 17:58N 59°25' E 005°15'0 0.0
2018-Jul-15 17:28N 59°25' E 005°15'0 0.0
2018-Jul-15 17:00N 59°25' E 005°15'0 0.0
2018-Jul-15 16:30N 59°25' E 005°15'0 0.0
2018-Jul-15 16:00N 59°25' E 005°15'0 0.2
2018-Jul-15 15:30N 59°25' E 005°15'4 7.4
2018-Jul-15 15:00N 59°22' E 005°18'713.7
2018-Jul-15 14:30N 59°15' E 005°21'713.9
2018-Jul-15 14:00N 59°08' E 005°21'713.9
2018-Jul-15 13:30N 59°01' E 005°20'713.5
2018-Jul-15 13:00N 58°55' E 005°17'613.0
2018-Jul-15 12:31N 58°49' E 005°12'713.2
2018-Jul-15 12:00N 58°43' E 005°06'713.3
2018-Jul-15 11:30N 58°37' E 005°01'1713.3
2018-Jul-15 10:12N 58°21' E 004°49'313.8
2018-Jul-15 10:00N 58°18' E 004°47'  
2018-Jul-12 03:12N 56°17' E 003°24'0 0.0
2018-Jul-12 02:55N 56°17' E 003°24'0 0.0
2018-Jul-12 02:24N 56°17' E 003°24'  

Dump ship's entire track history